Vaaraa aiheuttavia sääilmiöitä ei ole odotettavissa.    Ei varoituksia

Webkamera Lisätietoa Webcam


Yksityisiä sääasemia lähellä:

Sääasema Juupajoki

Sääasema Orivesi

Sääasema Muurame

Sääasema Jyväskylä

Sääasema Vihtavuori


Löydät sääaseman tiedot myös:

Finland Weather Exchange

European Weather Network

Weather Underground

AWEKAS

Windy.com



Säätiedot lähimmiltä METAR asemilta

   
EFHA - Halli (Fin-Afb), Finland
Etäisyys asemalta: Kaakko 25 km
Päivitetty: 23.01.2020 21:20
Selkeää  
Selkeää  
   Tuuli: Lounas 2.6 m/s
Tuuli: Lounas 2.6 m/s
Lämpötila: -1°C
Tuulen hyytävyys: -4°C
Kastepiste: -2°C
Kosteus: 93%
Ilmanpaine: 999 hPa
Näkyvyys: Enemmän kuin 10 km
Pilvitiedot: Selkeää
EFHA 231920Z AUTO 22005KT 150V310 CAVOK M01/M02 Q0999
EFJY - Jyvaskyla (Mil/Civ), Finland
Etäisyys asemalta: Koillinen 75 km
Päivitetty: 23.01.2020 21:20
Pilvistä  
Pilvistä  
   Tuuli: Lounas 2.6 m/s
Tuuli: Lounas 2.6 m/s
Lämpötila: 0°C
Tuulen hyytävyys: -3°C
Kastepiste: -1°C
Kosteus: 93%
Ilmanpaine: 997 hPa
Pilvisyys: Pilvistä
Näkyvyys: Enemmän kuin 10 km
Pilvitiedot: Pilvistä 213 m
EFJY 231920Z AUTO 23005KT 160V300 9999 OVC007 M00/M01 Q0997
EFTP - Tampere/Pirkkala, Finland
Etäisyys asemalta: Lounas 81 km
Päivitetty: 23.01.2020 21:20
Melkein pilvistä  
Melkein pilvistä  
   Tuuli: Länsilounas 6.2 m/s
Tuuli: Länsilounas 6.2 m/s
Lämpötila: 0°C
Tuulen hyytävyys: -6°C
Kastepiste: -2°C
Kosteus: 87%
Ilmanpaine: 1001 hPa
Pilvisyys: Melkein pilvistä
Näkyvyys: Enemmän kuin 10 km
Pilvitiedot: Melkein pilvistä 1494 m
EFTP 231920Z AUTO 24012KT 9999 BKN049 M00/M02 Q1001
EFSI - Seinajoki-Ilmajoki, Finland
Etäisyys asemalta: Luode 114 km
Päivitetty: 23.01.2020 21:20
Selkeää  
Selkeää  
   Tuuli: Länsilounas 3.1 m/s
Tuuli: Länsilounas 3.1 m/s
Lämpötila: 2°C
Tuulen hyytävyys: -1°C
Kastepiste: 0°C
Kosteus: 87%
Ilmanpaine: 998 hPa
Näkyvyys: Enemmän kuin 10 km
Pilvitiedot: Selkeää
EFSI 231920Z AUTO 25006KT 190V310 CAVOK 02/00 Q0998
EFMI - Mikkeli, Finland
Etäisyys asemalta: Itäkaakko 147 km
Päivitetty: 23.01.2020 21:20
Heikkoja sadekuuroja, Lumisadetta, Pilvistä  
Heikkoja sadekuuroja, Lumisadetta, Pilvistä  
   Tuuli: Lounas 3.6 m/s
Tuuli: Lounas 3.6 m/s
Lämpötila: 0°C
Tuulen hyytävyys: -4°C
Kastepiste: -1°C
Kosteus: 93%
Ilmanpaine: 999 hPa
Pilvisyys: Pilvistä
Näkyvyys: Enemmän kuin 10 km
Pilvitiedot: Pilvistä 244 m
EFMI 231920Z AUTO 22007KT 180V280 9999 -SHSN OVC008 M00/M01 Q0999
EFPO - Pori (Mil/Civ), Finland
Etäisyys asemalta: Länsilounas 154 km
Päivitetty: 23.01.2020 21:20
Selkeää  
Selkeää  
   Tuuli: Länsilounas 4.1 m/s
Tuuli: Länsilounas 4.1 m/s
Lämpötila: 2°C
Tuulen hyytävyys: -2°C
Kastepiste: -1°C
Kosteus: 81%
Ilmanpaine: 1003 hPa
Näkyvyys: Enemmän kuin 10 km
Pilvitiedot: Selkeää
EFPO 231920Z AUTO 24008KT CAVOK 02/M01 Q1003
EFUT - Utti (Fin-Afb), Finland
Etäisyys asemalta: Kaakko 180 km
Päivitetty: 23.01.2020 21:20
Heikkoa lumisadetta, Pilvistä  
Heikkoa lumisadetta, Pilvistä  
   Tuuli: Lounas 4.1 m/s
Tuuli: Lounas 4.1 m/s
Lämpötila: 0°C
Tuulen hyytävyys: -4°C
Kastepiste: -1°C
Kosteus: 93%
Ilmanpaine: 1002 hPa
Pilvisyys: Pilvistä
Näkyvyys: Enemmän kuin 10 km
Pilvitiedot: Pilvistä 244 m
EFUT 231920Z AUTO 23008KT 200V260 9999 -SN OVC008 00/M01 Q1002
EFVA - Vaasa, Finland
Etäisyys asemalta: Luode 180 km
Päivitetty: 23.01.2020 21:20
Selkeää  
Selkeää  
   Tuuli: Länsilounas 5.1 m/s
Tuuli: Länsilounas 5.1 m/s
Lämpötila: 3°C
Tuulen hyytävyys: -1°C
Kastepiste: 0°C
Kosteus: 81%
Ilmanpaine: 998 hPa
Näkyvyys: Enemmän kuin 10 km
Pilvitiedot: Selkeää
EFVA 231920Z AUTO 25010KT CAVOK 03/00 Q0998
EFHK - Helsinki/Vantaa, Finland
Etäisyys asemalta: Etelä 191 km
Päivitetty: 23.01.2020 21:20
Puolipilvistä  
Puolipilvistä  
   Tuuli: Länsilounas 4.6 m/s
Tuuli: Länsilounas 4.6 m/s
Lämpötila: 3°C
Tuulen hyytävyys: -1°C
Kastepiste: 0°C
Kosteus: 81%
Ilmanpaine: 1003 hPa
Pilvisyys: Puolipilvistä
Näkyvyys: Enemmän kuin 10 km
Pilvitiedot: Puolipilvistä 488 m
EFHK 231920Z 24009KT 210V270 9999 SCT016 03/M00 Q1003 NOSIG

Alkuperäinen skripti  Saratoga-weather.org Sovitettu myös templatelle  Weerstation Leuven

Laitteet joita käytämme:

Sääasema
Davis VP2

Sääasemaohjelma
Cumulus

Sääaseman palvelin
HP ProBook 6460b

Palveluntarjoaja
Radicenter

Davis VP2

Cumulus

HP ProBook 6460b

Radicenter




Flag Counter Cumulus Top Weather Sites